Главная страница
METAR-TAF:

METAR-TAF

Аэропорты :

Батуми, Грузия

широта: 41-36-37N, долгота: 041-35-58E, высота над уровнем моря: 32 м

Текущие метеонаблюдения

Эта сводка был подготовлена 23 минут назад, в 22:30 UTC
Ветер 20 Узел от юго-восточный
Температура 9°C
Влажность 46%
Давление 1015 hPa
Видимость 10 км и более
Рассеянная облачность на высоте 12000 фута

METAR: UGSB 232230Z 13020KT 9999 BKN120 09/M02 Q1015 NOSIG

Время: 02:53 (22:53 UTC)

Прогноз

Эта сводка был подготовлена 5 часа и 53 минут назад, в 17:00 UTC
Прогноз действительный с 23-го 18 UTC до 24-го 18 UTC
Ветер 18 Узел от юго-восточный
Видимость 10 км и более
Нет облачности ниже 1500 м, и нет кучево-дождевой облачности
временами
С 23-го 22 UTC до 24-го 06 UTC
Ветер 18 Узел от восточно-юго-восточный с порывами до 28 Узел
временами
С 24-го 10 UTC до 24-го 14 UTC
Ветер 7 Узел от восточно-северо-восточный

TAF: UGSB 231700Z 2318/2418 13018KT CAVOK TX16/2411Z TN06/2400Z TEMPO 2322/2406 12018G28KT TEMPO 2410/2414 07007KT

Метеонаблюдения и прогнозы для более 4000 аэропортов (сводки METAR и TAF).

Имеющиеся станции представлены на карте желтыми и красными точками.

Чтобы увидеть название станции, наведите на нее мышь.

Затем щелкните, чтобы увидеть метеонаблюдения и метеопрогнозы.

Управление картой: чтобы увеличить масштаб, щелкните зеленые кнопки с черным крестиком; чтобы уменьшить масштаб, щелкните зеленую кнопку с тире; для просмотра соседних карт щелкайте зеленые стрелки.


METAR-TAF: